sensor_id;sensor_type;location;lat;lon;timestamp;P1;durP1;ratioP1;P2;durP2;ratioP2
54263;SDS011;40178;53.042;6.406;2023-08-12T00:01:34;5.22;;;2.38;;
54263;SDS011;40178;53.042;6.406;2023-08-12T00:04:00;4.78;;;1.85;;
54263;SDS011;40178;53.042;6.406;2023-08-12T00:06:26;4.50;;;1.98;;
54263;SDS011;40178;53.042;6.406;2023-08-12T00:08:51;4.30;;;1.85;;
54263;SDS011;40178;53.042;6.406;2023-08-12T00:11:17;4.40;;;1.90;;
54263;SDS011;40178;53.042;6.406;2023-08-12T00:13:42;5.40;;;2.28;;
54263;SDS011;40178;53.042;6.406;2023-08-12T00:16:08;6.72;;;1.95;;
54263;SDS011;40178;53.042;6.406;2023-08-12T00:18:33;5.75;;;2.00;;
54263;SDS011;40178;53.042;6.406;2023-08-12T00:21:05;5.18;;;2.15;;
54263;SDS011;40178;53.042;6.406;2023-08-12T00:23:39;5.03;;;2.03;;
54263;SDS011;40178;53.042;6.406;2023-08-12T00:26:06;5.82;;;2.85;;
54263;SDS011;40178;53.042;6.406;2023-08-12T00:28:32;5.10;;;2.15;;
54263;SDS011;40178;53.042;6.406;2023-08-12T00:30:58;5.15;;;2.30;;
54263;SDS011;40178;53.042;6.406;2023-08-12T00:33:24;9.05;;;3.28;;
54263;SDS011;40178;53.042;6.406;2023-08-12T00:35:49;6.97;;;2.30;;
54263;SDS011;40178;53.042;6.406;2023-08-12T00:38:15;6.82;;;2.63;;
54263;SDS011;40178;53.042;6.406;2023-08-12T00:40:40;6.40;;;2.42;;
54263;SDS011;40178;53.042;6.406;2023-08-12T00:43:06;8.23;;;2.88;;
54263;SDS011;40178;53.042;6.406;2023-08-12T00:45:32;5.07;;;2.25;;
54263;SDS011;40178;53.042;6.406;2023-08-12T00:47:59;4.80;;;2.30;;
54263;SDS011;40178;53.042;6.406;2023-08-12T00:50:25;6.40;;;2.50;;
54263;SDS011;40178;53.042;6.406;2023-08-12T00:52:50;7.43;;;2.50;;
54263;SDS011;40178;53.042;6.406;2023-08-12T00:55:16;8.30;;;2.63;;
54263;SDS011;40178;53.042;6.406;2023-08-12T00:57:43;6.63;;;3.35;;
54263;SDS011;40178;53.042;6.406;2023-08-12T01:00:08;5.93;;;2.63;;
54263;SDS011;40178;53.042;6.406;2023-08-12T01:02:34;6.82;;;3.17;;
54263;SDS011;40178;53.042;6.406;2023-08-12T01:05:00;6.72;;;2.72;;
54263;SDS011;40178;53.042;6.406;2023-08-12T01:07:26;8.38;;;3.55;;
54263;SDS011;40178;53.042;6.406;2023-08-12T01:09:51;8.75;;;4.22;;
54263;SDS011;40178;53.042;6.406;2023-08-12T01:12:29;7.22;;;3.58;;
54263;SDS011;40178;53.042;6.406;2023-08-12T01:15:08;8.80;;;3.90;;
54263;SDS011;40178;53.042;6.406;2023-08-12T01:17:39;6.85;;;3.47;;
54263;SDS011;40178;53.042;6.406;2023-08-12T01:20:08;7.70;;;4.15;;
54263;SDS011;40178;53.042;6.406;2023-08-12T01:22:38;9.95;;;4.60;;
54263;SDS011;40178;53.042;6.406;2023-08-12T01:25:05;11.05;;;4.72;;
54263;SDS011;40178;53.042;6.406;2023-08-12T01:27:33;8.02;;;4.18;;
54263;SDS011;40178;53.042;6.406;2023-08-12T01:30:00;8.75;;;4.40;;
54263;SDS011;40178;53.042;6.406;2023-08-12T01:32:29;9.00;;;4.07;;
54263;SDS011;40178;53.042;6.406;2023-08-12T01:35:19;8.48;;;4.53;;
54263;SDS011;40178;53.042;6.406;2023-08-12T01:37:50;8.13;;;4.47;;
54263;SDS011;40178;53.042;6.406;2023-08-12T01:40:17;10.35;;;4.50;;
54263;SDS011;40178;53.042;6.406;2023-08-12T01:42:44;9.90;;;4.57;;
54263;SDS011;40178;53.042;6.406;2023-08-12T01:45:11;9.48;;;4.47;;
54263;SDS011;40178;53.042;6.406;2023-08-12T01:47:36;9.90;;;4.65;;
54263;SDS011;40178;53.042;6.406;2023-08-12T01:50:02;9.32;;;4.60;;
54263;SDS011;40178;53.042;6.406;2023-08-12T01:52:28;9.20;;;4.65;;
54263;SDS011;40178;53.042;6.406;2023-08-12T01:54:54;11.55;;;4.72;;
54263;SDS011;40178;53.042;6.406;2023-08-12T01:57:20;13.63;;;5.32;;
54263;SDS011;40178;53.042;6.406;2023-08-12T01:59:45;10.63;;;4.78;;
54263;SDS011;40178;53.042;6.406;2023-08-12T02:02:11;7.38;;;4.32;;
54263;SDS011;40178;53.042;6.406;2023-08-12T02:04:39;10.73;;;5.43;;
54263;SDS011;40178;53.042;6.406;2023-08-12T02:07:05;9.20;;;4.68;;
54263;SDS011;40178;53.042;6.406;2023-08-12T02:09:31;16.27;;;4.95;;
54263;SDS011;40178;53.042;6.406;2023-08-12T02:11:56;9.15;;;3.85;;
54263;SDS011;40178;53.042;6.406;2023-08-12T02:14:22;8.27;;;4.25;;
54263;SDS011;40178;53.042;6.406;2023-08-12T02:16:48;13.68;;;5.22;;
54263;SDS011;40178;53.042;6.406;2023-08-12T02:19:14;7.45;;;4.78;;
54263;SDS011;40178;53.042;6.406;2023-08-12T02:21:40;7.93;;;4.80;;
54263;SDS011;40178;53.042;6.406;2023-08-12T02:24:06;9.55;;;4.40;;
54263;SDS011;40178;53.042;6.406;2023-08-12T02:26:33;7.90;;;4.60;;
54263;SDS011;40178;53.042;6.406;2023-08-12T02:28:58;9.13;;;4.72;;
54263;SDS011;40178;53.042;6.406;2023-08-12T02:31:24;9.68;;;5.40;;
54263;SDS011;40178;53.042;6.406;2023-08-12T02:33:50;9.98;;;4.72;;
54263;SDS011;40178;53.042;6.406;2023-08-12T02:36:16;9.50;;;4.97;;
54263;SDS011;40178;53.042;6.406;2023-08-12T02:38:41;12.05;;;5.55;;
54263;SDS011;40178;53.042;6.406;2023-08-12T02:41:07;8.65;;;5.25;;
54263;SDS011;40178;53.042;6.406;2023-08-12T02:43:32;10.23;;;5.18;;
54263;SDS011;40178;53.042;6.406;2023-08-12T02:45:58;9.48;;;5.05;;
54263;SDS011;40178;53.042;6.406;2023-08-12T02:48:24;11.35;;;5.50;;
54263;SDS011;40178;53.042;6.406;2023-08-12T02:50:49;10.48;;;5.15;;
54263;SDS011;40178;53.042;6.406;2023-08-12T02:53:15;11.38;;;6.00;;
54263;SDS011;40178;53.042;6.406;2023-08-12T02:55:41;9.75;;;6.00;;
54263;SDS011;40178;53.042;6.406;2023-08-12T02:58:06;11.93;;;6.45;;
54263;SDS011;40178;53.042;6.406;2023-08-12T03:00:32;11.25;;;6.07;;
54263;SDS011;40178;53.042;6.406;2023-08-12T03:02:57;11.40;;;5.70;;
54263;SDS011;40178;53.042;6.406;2023-08-12T03:05:23;12.45;;;6.40;;
54263;SDS011;40178;53.042;6.406;2023-08-12T03:07:49;12.35;;;6.95;;
54263;SDS011;40178;53.042;6.406;2023-08-12T03:10:16;12.60;;;6.97;;
54263;SDS011;40178;53.042;6.406;2023-08-12T03:12:42;11.95;;;7.13;;
54263;SDS011;40178;53.042;6.406;2023-08-12T03:15:08;13.13;;;7.00;;
54263;SDS011;40178;53.042;6.406;2023-08-12T03:17:34;13.80;;;7.55;;
54263;SDS011;40178;53.042;6.406;2023-08-12T03:19:59;12.68;;;6.43;;
54263;SDS011;40178;53.042;6.406;2023-08-12T03:22:26;14.85;;;8.07;;
54263;SDS011;40178;53.042;6.406;2023-08-12T03:24:52;14.40;;;7.65;;
54263;SDS011;40178;53.042;6.406;2023-08-12T03:27:18;15.57;;;7.40;;
54263;SDS011;40178;53.042;6.406;2023-08-12T03:29:43;13.85;;;7.68;;
54263;SDS011;40178;53.042;6.406;2023-08-12T03:32:09;13.98;;;8.20;;
54263;SDS011;40178;53.042;6.406;2023-08-12T03:34:35;11.35;;;7.68;;
54263;SDS011;40178;53.042;6.406;2023-08-12T03:37:00;13.98;;;8.13;;
54263;SDS011;40178;53.042;6.406;2023-08-12T03:39:26;12.40;;;7.43;;
54263;SDS011;40178;53.042;6.406;2023-08-12T03:41:51;14.18;;;7.97;;
54263;SDS011;40178;53.042;6.406;2023-08-12T03:44:18;14.48;;;8.80;;
54263;SDS011;40178;53.042;6.406;2023-08-12T03:46:44;13.48;;;7.82;;
54263;SDS011;40178;53.042;6.406;2023-08-12T03:49:10;13.00;;;7.22;;
54263;SDS011;40178;53.042;6.406;2023-08-12T03:51:35;15.10;;;7.57;;
54263;SDS011;40178;53.042;6.406;2023-08-12T03:54:01;11.32;;;7.28;;
54263;SDS011;40178;53.042;6.406;2023-08-12T03:56:27;14.15;;;7.28;;
54263;SDS011;40178;53.042;6.406;2023-08-12T03:58:52;15.65;;;7.85;;
54263;SDS011;40178;53.042;6.406;2023-08-12T04:01:18;14.60;;;7.88;;
54263;SDS011;40178;53.042;6.406;2023-08-12T04:03:43;14.60;;;8.05;;
54263;SDS011;40178;53.042;6.406;2023-08-12T04:06:09;15.63;;;7.88;;
54263;SDS011;40178;53.042;6.406;2023-08-12T04:08:34;16.25;;;8.95;;
54263;SDS011;40178;53.042;6.406;2023-08-12T04:11:00;16.02;;;8.55;;
54263;SDS011;40178;53.042;6.406;2023-08-12T04:13:26;13.45;;;7.78;;
54263;SDS011;40178;53.042;6.406;2023-08-12T04:15:52;16.95;;;9.00;;
54263;SDS011;40178;53.042;6.406;2023-08-12T04:18:21;13.68;;;7.38;;
54263;SDS011;40178;53.042;6.406;2023-08-12T04:20:48;14.48;;;9.00;;
54263;SDS011;40178;53.042;6.406;2023-08-12T04:23:14;13.65;;;8.15;;
54263;SDS011;40178;53.042;6.406;2023-08-12T04:25:42;15.88;;;8.07;;
54263;SDS011;40178;53.042;6.406;2023-08-12T04:28:09;14.07;;;7.68;;
54263;SDS011;40178;53.042;6.406;2023-08-12T04:30:34;15.18;;;7.97;;
54263;SDS011;40178;53.042;6.406;2023-08-12T04:33:00;16.65;;;8.20;;
54263;SDS011;40178;53.042;6.406;2023-08-12T04:35:26;14.57;;;7.72;;
54263;SDS011;40178;53.042;6.406;2023-08-12T04:37:51;12.73;;;7.47;;
54263;SDS011;40178;53.042;6.406;2023-08-12T04:40:17;15.23;;;8.15;;
54263;SDS011;40178;53.042;6.406;2023-08-12T04:42:43;17.10;;;8.10;;
54263;SDS011;40178;53.042;6.406;2023-08-12T04:45:08;13.07;;;8.05;;
54263;SDS011;40178;53.042;6.406;2023-08-12T04:47:35;16.63;;;8.10;;
54263;SDS011;40178;53.042;6.406;2023-08-12T04:50:01;17.08;;;8.07;;
54263;SDS011;40178;53.042;6.406;2023-08-12T04:52:27;14.27;;;8.73;;
54263;SDS011;40178;53.042;6.406;2023-08-12T04:54:53;13.40;;;8.02;;
54263;SDS011;40178;53.042;6.406;2023-08-12T04:57:19;13.77;;;8.45;;
54263;SDS011;40178;53.042;6.406;2023-08-12T04:59:44;16.13;;;8.13;;
54263;SDS011;40178;53.042;6.406;2023-08-12T05:02:10;12.48;;;8.15;;
54263;SDS011;40178;53.042;6.406;2023-08-12T05:04:36;17.17;;;8.23;;
54263;SDS011;40178;53.042;6.406;2023-08-12T05:07:02;15.18;;;7.68;;
54263;SDS011;40178;53.042;6.406;2023-08-12T05:09:27;15.63;;;8.50;;
54263;SDS011;40178;53.042;6.406;2023-08-12T05:11:53;17.10;;;8.07;;
54263;SDS011;40178;53.042;6.406;2023-08-12T05:14:18;14.30;;;8.20;;
54263;SDS011;40178;53.042;6.406;2023-08-12T05:16:44;13.25;;;8.00;;
54263;SDS011;40178;53.042;6.406;2023-08-12T05:19:10;13.57;;;8.25;;
54263;SDS011;40178;53.042;6.406;2023-08-12T05:21:35;16.38;;;8.10;;
54263;SDS011;40178;53.042;6.406;2023-08-12T05:24:01;13.30;;;8.82;;
54263;SDS011;40178;53.042;6.406;2023-08-12T05:26:27;16.88;;;8.77;;
54263;SDS011;40178;53.042;6.406;2023-08-12T05:28:52;14.93;;;9.35;;
54263;SDS011;40178;53.042;6.406;2023-08-12T05:31:18;14.52;;;8.57;;
54263;SDS011;40178;53.042;6.406;2023-08-12T05:33:43;14.70;;;8.05;;
54263;SDS011;40178;53.042;6.406;2023-08-12T05:36:09;16.23;;;9.50;;
54263;SDS011;40178;53.042;6.406;2023-08-12T05:38:35;14.75;;;8.18;;
54263;SDS011;40178;53.042;6.406;2023-08-12T05:41:00;16.55;;;8.90;;
54263;SDS011;40178;53.042;6.406;2023-08-12T05:43:26;15.18;;;8.15;;
54263;SDS011;40178;53.042;6.406;2023-08-12T05:45:51;12.52;;;8.63;;
54263;SDS011;40178;53.042;6.406;2023-08-12T05:48:17;13.27;;;8.48;;
54263;SDS011;40178;53.042;6.406;2023-08-12T05:50:43;27.42;;;9.55;;
54263;SDS011;40178;53.042;6.406;2023-08-12T05:53:08;13.77;;;9.15;;
54263;SDS011;40178;53.042;6.406;2023-08-12T05:55:34;14.00;;;8.52;;
54263;SDS011;40178;53.042;6.406;2023-08-12T05:58:00;14.50;;;8.88;;
54263;SDS011;40178;53.042;6.406;2023-08-12T06:00:26;16.08;;;9.57;;
54263;SDS011;40178;53.042;6.406;2023-08-12T06:02:51;15.05;;;9.15;;
54263;SDS011;40178;53.042;6.406;2023-08-12T06:05:17;14.35;;;8.70;;
54263;SDS011;40178;53.042;6.406;2023-08-12T06:07:43;13.68;;;8.88;;
54263;SDS011;40178;53.042;6.406;2023-08-12T06:10:09;16.20;;;9.57;;
54263;SDS011;40178;53.042;6.406;2023-08-12T06:12:34;14.95;;;9.60;;
54263;SDS011;40178;53.042;6.406;2023-08-12T06:15:00;18.35;;;9.50;;
54263;SDS011;40178;53.042;6.406;2023-08-12T06:17:26;16.75;;;10.40;;
54263;SDS011;40178;53.042;6.406;2023-08-12T06:19:52;15.95;;;9.45;;
54263;SDS011;40178;53.042;6.406;2023-08-12T06:22:17;22.23;;;10.05;;
54263;SDS011;40178;53.042;6.406;2023-08-12T06:24:43;14.05;;;8.93;;
54263;SDS011;40178;53.042;6.406;2023-08-12T06:27:09;20.17;;;10.60;;
54263;SDS011;40178;53.042;6.406;2023-08-12T06:29:34;18.25;;;10.90;;
54263;SDS011;40178;53.042;6.406;2023-08-12T06:32:00;16.13;;;10.35;;
54263;SDS011;40178;53.042;6.406;2023-08-12T06:34:25;17.73;;;10.93;;
54263;SDS011;40178;53.042;6.406;2023-08-12T06:36:51;17.25;;;10.98;;
54263;SDS011;40178;53.042;6.406;2023-08-12T06:39:16;17.15;;;10.32;;
54263;SDS011;40178;53.042;6.406;2023-08-12T06:41:42;18.55;;;9.95;;
54263;SDS011;40178;53.042;6.406;2023-08-12T06:44:08;16.13;;;10.30;;
54263;SDS011;40178;53.042;6.406;2023-08-12T06:46:33;17.02;;;10.00;;
54263;SDS011;40178;53.042;6.406;2023-08-12T06:48:59;20.70;;;12.25;;
54263;SDS011;40178;53.042;6.406;2023-08-12T06:51:24;21.30;;;11.55;;
54263;SDS011;40178;53.042;6.406;2023-08-12T06:53:50;21.63;;;11.40;;
54263;SDS011;40178;53.042;6.406;2023-08-12T06:56:15;18.20;;;10.63;;
54263;SDS011;40178;53.042;6.406;2023-08-12T06:58:41;22.85;;;11.45;;
54263;SDS011;40178;53.042;6.406;2023-08-12T07:01:07;17.67;;;11.07;;
54263;SDS011;40178;53.042;6.406;2023-08-12T07:03:32;20.77;;;10.93;;
54263;SDS011;40178;53.042;6.406;2023-08-12T07:05:58;19.92;;;11.43;;
54263;SDS011;40178;53.042;6.406;2023-08-12T07:08:24;19.77;;;10.73;;
54263;SDS011;40178;53.042;6.406;2023-08-12T07:10:49;20.45;;;10.75;;
54263;SDS011;40178;53.042;6.406;2023-08-12T07:13:15;19.77;;;11.65;;
54263;SDS011;40178;53.042;6.406;2023-08-12T07:15:41;20.05;;;11.80;;
54263;SDS011;40178;53.042;6.406;2023-08-12T07:18:06;20.58;;;11.93;;
54263;SDS011;40178;53.042;6.406;2023-08-12T07:20:32;17.70;;;11.68;;
54263;SDS011;40178;53.042;6.406;2023-08-12T07:22:58;19.65;;;11.43;;
54263;SDS011;40178;53.042;6.406;2023-08-12T07:25:23;20.45;;;11.10;;
54263;SDS011;40178;53.042;6.406;2023-08-12T07:27:49;21.25;;;11.82;;
54263;SDS011;40178;53.042;6.406;2023-08-12T07:30:15;21.73;;;11.75;;
54263;SDS011;40178;53.042;6.406;2023-08-12T07:32:40;20.17;;;11.25;;
54263;SDS011;40178;53.042;6.406;2023-08-12T07:35:06;20.48;;;11.50;;
54263;SDS011;40178;53.042;6.406;2023-08-12T07:37:32;19.20;;;11.13;;
54263;SDS011;40178;53.042;6.406;2023-08-12T07:39:58;18.42;;;10.32;;
54263;SDS011;40178;53.042;6.406;2023-08-12T07:42:23;17.45;;;11.07;;
54263;SDS011;40178;53.042;6.406;2023-08-12T07:44:49;17.88;;;11.27;;
54263;SDS011;40178;53.042;6.406;2023-08-12T07:47:15;16.55;;;10.55;;
54263;SDS011;40178;53.042;6.406;2023-08-12T07:49:41;21.25;;;10.68;;
54263;SDS011;40178;53.042;6.406;2023-08-12T07:52:07;19.15;;;11.35;;
54263;SDS011;40178;53.042;6.406;2023-08-12T07:54:32;18.55;;;10.40;;
54263;SDS011;40178;53.042;6.406;2023-08-12T07:56:58;15.18;;;9.93;;
54263;SDS011;40178;53.042;6.406;2023-08-12T07:59:24;18.92;;;10.35;;
54263;SDS011;40178;53.042;6.406;2023-08-12T08:01:51;17.13;;;11.25;;
54263;SDS011;40178;53.042;6.406;2023-08-12T08:04:16;20.23;;;10.90;;
54263;SDS011;40178;53.042;6.406;2023-08-12T08:06:42;18.15;;;11.02;;
54263;SDS011;40178;53.042;6.406;2023-08-12T08:09:08;15.23;;;10.38;;
54263;SDS011;40178;53.042;6.406;2023-08-12T08:11:34;17.27;;;10.02;;
54263;SDS011;40178;53.042;6.406;2023-08-12T08:14:00;19.13;;;10.90;;
54263;SDS011;40178;53.042;6.406;2023-08-12T08:16:26;17.50;;;11.50;;
54263;SDS011;40178;53.042;6.406;2023-08-12T08:18:51;18.45;;;10.93;;
54263;SDS011;40178;53.042;6.406;2023-08-12T08:21:17;17.25;;;10.82;;
54263;SDS011;40178;53.042;6.406;2023-08-12T08:23:43;19.77;;;11.48;;
54263;SDS011;40178;53.042;6.406;2023-08-12T08:26:09;18.70;;;11.73;;
54263;SDS011;40178;53.042;6.406;2023-08-12T08:28:35;17.02;;;10.90;;
54263;SDS011;40178;53.042;6.406;2023-08-12T08:31:00;19.75;;;12.50;;
54263;SDS011;40178;53.042;6.406;2023-08-12T08:33:26;18.77;;;11.55;;
54263;SDS011;40178;53.042;6.406;2023-08-12T08:35:53;19.25;;;12.13;;
54263;SDS011;40178;53.042;6.406;2023-08-12T08:38:19;19.90;;;12.18;;
54263;SDS011;40178;53.042;6.406;2023-08-12T08:40:44;18.98;;;11.77;;
54263;SDS011;40178;53.042;6.406;2023-08-12T08:43:10;19.15;;;12.35;;
54263;SDS011;40178;53.042;6.406;2023-08-12T08:45:40;19.10;;;12.15;;
54263;SDS011;40178;53.042;6.406;2023-08-12T08:48:08;19.20;;;12.15;;
54263;SDS011;40178;53.042;6.406;2023-08-12T08:50:36;17.48;;;11.38;;
54263;SDS011;40178;53.042;6.406;2023-08-12T08:53:04;19.60;;;12.93;;
54263;SDS011;40178;53.042;6.406;2023-08-12T08:55:31;18.85;;;11.82;;
54263;SDS011;40178;53.042;6.406;2023-08-12T08:57:57;22.35;;;12.70;;
54263;SDS011;40178;53.042;6.406;2023-08-12T09:00:23;22.77;;;13.23;;
54263;SDS011;40178;53.042;6.406;2023-08-12T09:02:49;22.52;;;12.88;;
54263;SDS011;40178;53.042;6.406;2023-08-12T09:05:17;22.88;;;13.40;;
54263;SDS011;40178;53.042;6.406;2023-08-12T09:07:45;19.77;;;13.30;;
54263;SDS011;40178;53.042;6.406;2023-08-12T09:10:12;21.15;;;13.45;;
54263;SDS011;40178;53.042;6.406;2023-08-12T09:12:38;23.38;;;13.10;;
54263;SDS011;40178;53.042;6.406;2023-08-12T09:15:04;23.95;;;13.80;;
54263;SDS011;40178;53.042;6.406;2023-08-12T09:17:31;21.58;;;13.88;;
54263;SDS011;40178;53.042;6.406;2023-08-12T09:19:57;22.00;;;13.93;;
54263;SDS011;40178;53.042;6.406;2023-08-12T09:22:24;25.20;;;15.23;;
54263;SDS011;40178;53.042;6.406;2023-08-12T09:24:55;22.83;;;14.65;;
54263;SDS011;40178;53.042;6.406;2023-08-12T09:27:22;28.70;;;15.10;;
54263;SDS011;40178;53.042;6.406;2023-08-12T09:29:48;25.38;;;14.75;;
54263;SDS011;40178;53.042;6.406;2023-08-12T09:32:17;24.85;;;15.38;;
54263;SDS011;40178;53.042;6.406;2023-08-12T09:34:47;20.65;;;13.73;;
54263;SDS011;40178;53.042;6.406;2023-08-12T09:37:14;21.42;;;14.05;;
54263;SDS011;40178;53.042;6.406;2023-08-12T09:39:41;20.88;;;13.98;;
54263;SDS011;40178;53.042;6.406;2023-08-12T09:42:07;20.27;;;13.68;;
54263;SDS011;40178;53.042;6.406;2023-08-12T09:44:37;17.80;;;12.27;;
54263;SDS011;40178;53.042;6.406;2023-08-12T09:47:03;18.50;;;12.07;;
54263;SDS011;40178;53.042;6.406;2023-08-12T09:49:29;18.55;;;11.98;;
54263;SDS011;40178;53.042;6.406;2023-08-12T09:51:55;21.42;;;12.15;;
54263;SDS011;40178;53.042;6.406;2023-08-12T09:54:22;16.23;;;9.32;;
54263;SDS011;40178;53.042;6.406;2023-08-12T09:56:52;16.10;;;9.70;;
54263;SDS011;40178;53.042;6.406;2023-08-12T09:59:24;11.95;;;6.95;;
54263;SDS011;40178;53.042;6.406;2023-08-12T10:01:52;12.32;;;6.88;;
54263;SDS011;40178;53.042;6.406;2023-08-12T10:04:20;7.47;;;4.07;;
54263;SDS011;40178;53.042;6.406;2023-08-12T10:06:48;6.97;;;3.22;;
54263;SDS011;40178;53.042;6.406;2023-08-12T10:09:17;7.47;;;3.50;;
54263;SDS011;40178;53.042;6.406;2023-08-12T10:11:43;7.10;;;3.47;;
54263;SDS011;40178;53.042;6.406;2023-08-12T10:14:11;8.52;;;3.75;;
54263;SDS011;40178;53.042;6.406;2023-08-12T10:16:37;7.43;;;3.58;;
54263;SDS011;40178;53.042;6.406;2023-08-12T10:19:04;6.70;;;3.45;;
54263;SDS011;40178;53.042;6.406;2023-08-12T10:21:31;5.88;;;2.92;;
54263;SDS011;40178;53.042;6.406;2023-08-12T10:24:00;6.63;;;2.85;;
54263;SDS011;40178;53.042;6.406;2023-08-12T10:26:28;6.43;;;2.90;;
54263;SDS011;40178;53.042;6.406;2023-08-12T10:28:55;5.57;;;3.00;;
54263;SDS011;40178;53.042;6.406;2023-08-12T10:31:21;5.78;;;3.17;;
54263;SDS011;40178;53.042;6.406;2023-08-12T10:33:47;6.13;;;3.30;;
54263;SDS011;40178;53.042;6.406;2023-08-12T10:36:15;6.57;;;3.30;;
54263;SDS011;40178;53.042;6.406;2023-08-12T10:38:41;7.13;;;3.47;;
54263;SDS011;40178;53.042;6.406;2023-08-12T10:43:49;6.03;;;3.60;;
54263;SDS011;40178;53.042;6.406;2023-08-12T10:46:28;7.43;;;3.25;;
54263;SDS011;40178;53.042;6.406;2023-08-12T10:49:08;8.47;;;3.70;;
54263;SDS011;40178;53.042;6.406;2023-08-12T10:51:51;6.05;;;3.28;;
54263;SDS011;40178;53.042;6.406;2023-08-12T11:02:15;6.28;;;3.30;;
54263;SDS011;40178;53.042;6.406;2023-08-12T11:04:41;5.90;;;3.15;;
54263;SDS011;40178;53.042;6.406;2023-08-12T11:10:10;6.03;;;2.70;;
54263;SDS011;40178;53.042;6.406;2023-08-12T11:12:46;4.18;;;2.50;;
54263;SDS011;40178;53.042;6.406;2023-08-12T11:20:29;5.93;;;3.10;;
54263;SDS011;40178;53.042;6.406;2023-08-12T11:22:56;4.47;;;2.45;;
54263;SDS011;40178;53.042;6.406;2023-08-12T11:25:23;4.90;;;2.58;;
54263;SDS011;40178;53.042;6.406;2023-08-12T11:27:50;4.70;;;2.40;;
54263;SDS011;40178;53.042;6.406;2023-08-12T11:30:17;4.25;;;1.90;;
54263;SDS011;40178;53.042;6.406;2023-08-12T11:32:48;5.05;;;2.45;;
54263;SDS011;40178;53.042;6.406;2023-08-12T11:35:15;3.20;;;1.60;;
54263;SDS011;40178;53.042;6.406;2023-08-12T11:37:45;3.55;;;1.10;;
54263;SDS011;40178;53.042;6.406;2023-08-12T11:40:12;5.22;;;1.85;;
54263;SDS011;40178;53.042;6.406;2023-08-12T11:42:40;3.60;;;1.75;;
54263;SDS011;40178;53.042;6.406;2023-08-12T11:45:08;4.35;;;1.70;;
54263;SDS011;40178;53.042;6.406;2023-08-12T11:47:34;4.18;;;1.75;;
54263;SDS011;40178;53.042;6.406;2023-08-12T11:50:07;4.88;;;1.92;;
54263;SDS011;40178;53.042;6.406;2023-08-12T11:52:34;5.70;;;1.77;;
54263;SDS011;40178;53.042;6.406;2023-08-12T11:55:01;5.55;;;1.73;;
54263;SDS011;40178;53.042;6.406;2023-08-12T11:57:27;4.97;;;2.10;;
54263;SDS011;40178;53.042;6.406;2023-08-12T11:59:59;4.78;;;2.20;;
54263;SDS011;40178;53.042;6.406;2023-08-12T12:02:26;6.30;;;2.22;;
54263;SDS011;40178;53.042;6.406;2023-08-12T12:04:52;4.20;;;1.60;;
54263;SDS011;40178;53.042;6.406;2023-08-12T12:07:22;4.53;;;1.77;;
54263;SDS011;40178;53.042;6.406;2023-08-12T12:09:53;5.43;;;1.90;;
54263;SDS011;40178;53.042;6.406;2023-08-12T12:12:23;7.22;;;2.10;;
54263;SDS011;40178;53.042;6.406;2023-08-12T12:14:52;5.47;;;1.92;;
54263;SDS011;40178;53.042;6.406;2023-08-12T12:17:24;5.38;;;1.80;;
54263;SDS011;40178;53.042;6.406;2023-08-12T12:19:54;5.28;;;1.80;;
54263;SDS011;40178;53.042;6.406;2023-08-12T12:22:25;6.00;;;1.60;;
54263;SDS011;40178;53.042;6.406;2023-08-12T12:24:57;4.68;;;1.52;;
54263;SDS011;40178;53.042;6.406;2023-08-12T12:27:24;3.63;;;1.10;;
54263;SDS011;40178;53.042;6.406;2023-08-12T12:29:50;4.15;;;1.05;;
54263;SDS011;40178;53.042;6.406;2023-08-12T12:32:18;5.50;;;1.48;;
54263;SDS011;40178;53.042;6.406;2023-08-12T12:34:45;5.20;;;1.20;;
54263;SDS011;40178;53.042;6.406;2023-08-12T12:37:11;4.07;;;1.40;;
54263;SDS011;40178;53.042;6.406;2023-08-12T12:39:38;4.45;;;1.42;;
54263;SDS011;40178;53.042;6.406;2023-08-12T12:42:04;6.85;;;1.55;;
54263;SDS011;40178;53.042;6.406;2023-08-12T12:44:30;6.57;;;1.92;;
54263;SDS011;40178;53.042;6.406;2023-08-12T12:46:56;7.00;;;1.83;;
54263;SDS011;40178;53.042;6.406;2023-08-12T12:49:21;6.55;;;1.75;;
54263;SDS011;40178;53.042;6.406;2023-08-12T12:51:47;5.70;;;1.63;;
54263;SDS011;40178;53.042;6.406;2023-08-12T12:54:13;3.80;;;1.13;;
54263;SDS011;40178;53.042;6.406;2023-08-12T12:56:38;4.55;;;1.50;;
54263;SDS011;40178;53.042;6.406;2023-08-12T12:59:04;4.82;;;1.30;;
54263;SDS011;40178;53.042;6.406;2023-08-12T13:01:30;7.90;;;1.38;;
54263;SDS011;40178;53.042;6.406;2023-08-12T13:03:56;4.93;;;1.23;;
54263;SDS011;40178;53.042;6.406;2023-08-12T13:06:21;5.38;;;1.35;;
54263;SDS011;40178;53.042;6.406;2023-08-12T13:08:47;6.18;;;2.00;;
54263;SDS011;40178;53.042;6.406;2023-08-12T13:11:12;5.10;;;1.40;;
54263;SDS011;40178;53.042;6.406;2023-08-12T13:13:38;6.38;;;1.48;;
54263;SDS011;40178;53.042;6.406;2023-08-12T13:16:03;6.65;;;1.95;;
54263;SDS011;40178;53.042;6.406;2023-08-12T13:18:29;5.03;;;1.55;;
54263;SDS011;40178;53.042;6.406;2023-08-12T13:20:55;3.45;;;1.10;;
54263;SDS011;40178;53.042;6.406;2023-08-12T13:23:20;4.85;;;1.38;;
54263;SDS011;40178;53.042;6.406;2023-08-12T13:25:46;3.55;;;1.25;;
54263;SDS011;40178;53.042;6.406;2023-08-12T13:28:11;5.20;;;1.20;;
54263;SDS011;40178;53.042;6.406;2023-08-12T13:30:37;6.38;;;1.30;;
54263;SDS011;40178;53.042;6.406;2023-08-12T13:33:03;5.57;;;1.05;;
54263;SDS011;40178;53.042;6.406;2023-08-12T13:35:29;7.15;;;1.80;;
54263;SDS011;40178;53.042;6.406;2023-08-12T13:37:55;6.22;;;1.30;;
54263;SDS011;40178;53.042;6.406;2023-08-12T13:40:21;4.10;;;1.27;;
54263;SDS011;40178;53.042;6.406;2023-08-12T13:42:46;4.97;;;1.10;;
54263;SDS011;40178;53.042;6.406;2023-08-12T13:45:12;3.75;;;1.10;;
54263;SDS011;40178;53.042;6.406;2023-08-12T13:47:38;8.50;;;1.50;;
54263;SDS011;40178;53.042;6.406;2023-08-12T13:50:04;5.45;;;1.23;;
54263;SDS011;40178;53.042;6.406;2023-08-12T13:52:30;6.13;;;0.98;;
54263;SDS011;40178;53.042;6.406;2023-08-12T13:54:56;6.18;;;1.15;;
54263;SDS011;40178;53.042;6.406;2023-08-12T13:57:21;4.22;;;1.35;;
54263;SDS011;40178;53.042;6.406;2023-08-12T13:59:47;3.33;;;0.85;;
54263;SDS011;40178;53.042;6.406;2023-08-12T14:02:13;3.28;;;0.93;;
54263;SDS011;40178;53.042;6.406;2023-08-12T14:04:39;5.63;;;0.90;;
54263;SDS011;40178;53.042;6.406;2023-08-12T14:07:05;3.47;;;0.80;;
54263;SDS011;40178;53.042;6.406;2023-08-12T14:09:31;5.13;;;1.20;;
54263;SDS011;40178;53.042;6.406;2023-08-12T14:11:57;5.03;;;1.17;;
54263;SDS011;40178;53.042;6.406;2023-08-12T14:14:24;4.75;;;1.40;;
54263;SDS011;40178;53.042;6.406;2023-08-12T14:16:54;5.63;;;1.58;;
54263;SDS011;40178;53.042;6.406;2023-08-12T14:19:20;7.20;;;1.60;;
54263;SDS011;40178;53.042;6.406;2023-08-12T14:21:45;4.68;;;0.80;;
54263;SDS011;40178;53.042;6.406;2023-08-12T14:24:11;6.00;;;0.93;;
54263;SDS011;40178;53.042;6.406;2023-08-12T14:26:38;4.28;;;1.15;;
54263;SDS011;40178;53.042;6.406;2023-08-12T14:29:04;3.72;;;0.70;;
54263;SDS011;40178;53.042;6.406;2023-08-12T14:31:30;2.83;;;0.80;;
54263;SDS011;40178;53.042;6.406;2023-08-12T14:33:55;5.03;;;0.90;;
54263;SDS011;40178;53.042;6.406;2023-08-12T14:36:21;5.43;;;1.23;;
54263;SDS011;40178;53.042;6.406;2023-08-12T14:38:46;6.57;;;1.15;;
54263;SDS011;40178;53.042;6.406;2023-08-12T14:41:12;7.13;;;1.05;;
54263;SDS011;40178;53.042;6.406;2023-08-12T14:43:37;6.13;;;1.73;;
54263;SDS011;40178;53.042;6.406;2023-08-12T14:46:03;4.40;;;1.20;;
54263;SDS011;40178;53.042;6.406;2023-08-12T14:48:30;3.53;;;1.00;;
54263;SDS011;40178;53.042;6.406;2023-08-12T14:50:56;3.25;;;0.98;;
54263;SDS011;40178;53.042;6.406;2023-08-12T14:53:22;4.47;;;1.10;;